createdAt,value
2023-04-02T00:01:19.272Z,6.20
2023-04-02T00:03:46.010Z,6.20
2023-04-02T00:06:32.852Z,6.20
2023-04-02T00:09:29.654Z,6.16
2023-04-02T00:11:57.152Z,6.15
2023-04-02T00:14:34.279Z,6.17
2023-04-02T00:17:04.580Z,6.13
2023-04-02T00:19:37.172Z,6.13
2023-04-02T00:22:07.624Z,6.09
2023-04-02T00:24:34.145Z,6.11
2023-04-02T00:27:00.985Z,6.08
2023-04-02T00:29:27.557Z,6.09
2023-04-02T00:31:54.729Z,6.06
2023-04-02T00:34:26.106Z,6.07
2023-04-02T00:36:53.506Z,6.08
2023-04-02T00:39:24.197Z,6.07
2023-04-02T00:41:54.704Z,6.07
2023-04-02T00:44:22.293Z,6.02
2023-04-02T00:46:50.079Z,6.02
2023-04-02T00:49:22.763Z,6.02
2023-04-02T00:52:00.432Z,6.00
2023-04-02T00:54:31.247Z,5.97
2023-04-02T00:56:58.819Z,5.97
2023-04-02T00:59:31.835Z,5.97
2023-04-02T01:02:26.507Z,5.95
2023-04-02T01:05:16.671Z,5.93
2023-04-02T01:07:55.835Z,5.94
2023-04-02T01:10:43.790Z,5.93
2023-04-02T01:13:24.246Z,5.91
2023-04-02T01:16:02.757Z,5.88
2023-04-02T01:19:01.934Z,5.90
2023-04-02T01:21:37.025Z,5.89
2023-04-02T01:24:07.239Z,5.86
2023-04-02T01:26:54.646Z,5.88
2023-04-02T01:29:33.306Z,5.86
2023-04-02T01:32:06.641Z,5.82
2023-04-02T01:34:33.775Z,5.81
2023-04-02T01:37:22.301Z,5.86
2023-04-02T01:39:55.352Z,5.83
2023-04-02T01:42:37.758Z,5.85
2023-04-02T01:45:13.969Z,5.82
2023-04-02T01:47:41.144Z,5.84
2023-04-02T01:50:21.992Z,5.80
2023-04-02T01:52:52.364Z,5.78
2023-04-02T01:55:25.316Z,5.76
2023-04-02T01:57:54.221Z,5.71
2023-04-02T02:00:22.380Z,5.73
2023-04-02T02:02:51.686Z,5.69
2023-04-02T02:05:23.414Z,5.68
2023-04-02T02:07:52.130Z,5.69
2023-04-02T02:10:26.193Z,5.66
2023-04-02T02:12:53.249Z,5.59
2023-04-02T02:15:22.572Z,5.59
2023-04-02T02:17:50.258Z,5.53
2023-04-02T02:20:17.885Z,5.49
2023-04-02T02:22:47.086Z,5.44
2023-04-02T02:25:24.241Z,5.38
2023-04-02T02:28:08.139Z,5.31
2023-04-02T02:30:44.873Z,5.28
2023-04-02T02:33:22.535Z,5.25
2023-04-02T02:36:00.725Z,5.20
2023-04-02T02:38:30.377Z,5.19
2023-04-02T02:41:13.344Z,5.14
2023-04-02T02:43:44.782Z,5.05
2023-04-02T02:46:16.698Z,5.03
2023-04-02T02:48:44.526Z,4.98
2023-04-02T02:51:21.045Z,4.98
2023-04-02T02:53:52.780Z,4.97
2023-04-02T02:56:22.911Z,4.92
2023-04-02T02:58:52.336Z,4.93
2023-04-02T03:01:19.024Z,4.95
2023-04-02T03:03:47.789Z,4.94
2023-04-02T03:06:16.797Z,4.96
2023-04-02T03:09:10.873Z,4.95
2023-04-02T03:11:44.564Z,4.92
2023-04-02T03:14:22.409Z,4.87
2023-04-02T03:16:55.312Z,4.89
2023-04-02T03:19:33.331Z,4.89
2023-04-02T03:22:08.439Z,4.87
2023-04-02T03:24:42.852Z,4.87
2023-04-02T03:27:09.235Z,4.90
2023-04-02T03:29:41.542Z,4.84
2023-04-02T03:32:22.265Z,4.79
2023-04-02T03:34:55.028Z,4.80
2023-04-02T03:37:28.594Z,4.80
2023-04-02T03:39:57.942Z,4.79
2023-04-02T03:42:26.198Z,4.79
2023-04-02T03:45:05.604Z,4.76
2023-04-02T03:47:40.914Z,4.74
2023-04-02T03:50:11.302Z,4.70
2023-04-02T03:52:38.703Z,4.72
2023-04-02T03:55:19.366Z,4.70
2023-04-02T03:58:07.409Z,4.69
2023-04-02T04:00:49.590Z,4.67
2023-04-02T04:03:39.901Z,4.72
2023-04-02T04:06:12.156Z,4.69
2023-04-02T04:08:46.887Z,4.66
2023-04-02T04:11:20.197Z,4.67
2023-04-02T04:13:56.291Z,4.68
2023-04-02T04:16:30.021Z,4.64
2023-04-02T04:19:06.981Z,4.59
2023-04-02T04:21:39.958Z,4.55
2023-04-02T04:24:17.313Z,4.51
2023-04-02T04:26:43.754Z,4.50
2023-04-02T04:29:47.113Z,4.50
2023-04-02T04:32:32.086Z,4.46
2023-04-02T04:35:06.251Z,4.46
2023-04-02T04:37:39.551Z,4.41
2023-04-02T04:40:17.314Z,4.38
2023-04-02T04:42:45.745Z,4.30
2023-04-02T04:45:29.033Z,4.28
2023-04-02T04:48:04.325Z,4.28
2023-04-02T04:50:52.230Z,4.27
2023-04-02T04:53:24.907Z,4.27
2023-04-02T04:56:15.958Z,4.24
2023-04-02T04:58:59.044Z,4.13
2023-04-02T05:01:45.891Z,4.08
2023-04-02T05:04:19.981Z,4.01
2023-04-02T05:06:54.440Z,3.99
2023-04-02T05:09:41.384Z,3.91
2023-04-02T05:12:16.993Z,3.87
2023-04-02T05:15:08.324Z,3.76
2023-04-02T05:17:48.783Z,3.64
2023-04-02T05:20:25.681Z,3.52
2023-04-02T05:22:58.180Z,3.42
2023-04-02T05:25:29.964Z,3.34
2023-04-02T05:28:11.408Z,3.29
2023-04-02T05:31:05.920Z,3.25
2023-04-02T05:33:37.173Z,3.20
2023-04-02T05:36:26.386Z,3.15
2023-04-02T05:38:54.085Z,3.13
2023-04-02T05:41:36.938Z,3.07
2023-04-02T05:44:21.347Z,2.94
2023-04-02T05:46:54.311Z,2.88
2023-04-02T05:49:25.632Z,2.86
2023-04-02T05:51:57.589Z,2.83
2023-04-02T05:54:30.693Z,2.77
2023-04-02T05:57:23.125Z,2.79
2023-04-02T05:59:57.873Z,2.79
2023-04-02T06:02:39.404Z,2.74
2023-04-02T06:05:12.916Z,2.72
2023-04-02T06:07:56.115Z,2.65
2023-04-02T06:10:33.391Z,2.69
2023-04-02T06:13:07.576Z,2.70
2023-04-02T06:15:36.846Z,2.70
2023-04-02T06:18:13.698Z,2.75
2023-04-02T06:20:40.427Z,2.76
2023-04-02T06:23:19.511Z,2.77
2023-04-02T06:25:51.185Z,2.77
2023-04-02T06:28:24.771Z,2.81
2023-04-02T06:30:54.663Z,2.82
2023-04-02T06:33:21.467Z,2.83
2023-04-02T06:35:51.228Z,2.83
2023-04-02T06:38:23.593Z,2.89
2023-04-02T06:40:59.907Z,2.89
2023-04-02T06:43:42.109Z,2.88
2023-04-02T06:46:24.965Z,2.94
2023-04-02T06:48:56.684Z,2.96
2023-04-02T06:51:25.943Z,2.99
2023-04-02T06:53:53.309Z,2.95
2023-04-02T06:56:39.242Z,3.01
2023-04-02T06:59:07.469Z,3.15
2023-04-02T07:01:40.608Z,3.11
2023-04-02T07:04:07.706Z,3.15
2023-04-02T07:06:34.291Z,3.17
2023-04-02T07:09:01.100Z,3.15
2023-04-02T07:11:27.612Z,3.15
2023-04-02T07:13:54.139Z,3.14
2023-04-02T07:16:25.358Z,3.15
2023-04-02T07:18:55.339Z,3.23
2023-04-02T07:21:22.412Z,3.29
2023-04-02T07:23:48.892Z,3.19
2023-04-02T07:26:22.299Z,3.26
2023-04-02T07:28:49.433Z,3.24
2023-04-02T07:31:25.799Z,3.33
2023-04-02T07:33:54.577Z,3.29
2023-04-02T07:36:23.621Z,3.31
2023-04-02T07:38:50.532Z,3.23
2023-04-02T07:41:17.618Z,3.24
2023-04-02T07:43:44.200Z,3.28
2023-04-02T07:46:12.260Z,3.25
2023-04-02T07:48:40.363Z,3.34
2023-04-02T07:51:25.074Z,3.27
2023-04-02T07:53:55.627Z,3.27
2023-04-02T07:56:24.114Z,3.25
2023-04-02T07:58:50.647Z,3.21
2023-04-02T08:01:24.453Z,3.29
2023-04-02T08:03:54.201Z,3.34
2023-04-02T08:06:21.315Z,3.33
2023-04-02T08:08:47.839Z,3.35
2023-04-02T08:11:14.596Z,3.34
2023-04-02T08:13:41.402Z,3.33
2023-04-02T08:16:08.572Z,3.33
2023-04-02T08:18:36.042Z,3.33
2023-04-02T08:21:03.280Z,3.37
2023-04-02T08:23:29.851Z,3.35
2023-04-02T08:25:56.588Z,3.34
2023-04-02T08:28:23.072Z,3.39
2023-04-02T08:30:50.269Z,3.51
2023-04-02T08:33:18.053Z,3.59
2023-04-02T08:35:49.212Z,3.63
2023-04-02T08:38:17.810Z,3.59
2023-04-02T08:40:48.368Z,3.53
2023-04-02T08:43:18.609Z,3.63
2023-04-02T08:46:08.355Z,3.73
2023-04-02T08:48:40.224Z,3.72
2023-04-02T08:51:17.316Z,3.75
2023-04-02T08:53:43.847Z,3.76
2023-04-02T08:56:20.140Z,3.80
2023-04-02T08:59:16.854Z,3.79
2023-04-02T09:01:56.681Z,3.77
2023-04-02T09:04:26.007Z,3.80
2023-04-02T09:06:56.140Z,3.85
2023-04-02T09:09:23.803Z,3.85
2023-04-02T09:12:04.275Z,3.78
2023-04-02T09:14:36.777Z,3.81
2023-04-02T09:17:03.966Z,3.80
2023-04-02T09:19:38.446Z,3.81
2023-04-02T09:22:30.173Z,3.86
2023-04-02T09:24:58.904Z,3.96
2023-04-02T09:27:34.514Z,4.06
2023-04-02T09:30:10.678Z,4.17
2023-04-02T09:32:58.676Z,4.25
2023-04-02T09:35:28.586Z,4.34
2023-04-02T09:38:07.190Z,4.25
2023-04-02T09:40:42.260Z,4.23
2023-04-02T09:43:12.904Z,4.22
2023-04-02T09:45:41.528Z,4.13
2023-04-02T09:48:58.342Z,4.07
2023-04-02T09:51:31.849Z,4.05
2023-04-02T09:54:04.496Z,4.08
2023-04-02T09:56:35.859Z,4.02
2023-04-02T09:59:04.417Z,4.17
2023-04-02T10:01:34.199Z,4.31
2023-04-02T10:04:03.542Z,4.31
2023-04-02T10:06:31.366Z,4.57
2023-04-02T10:08:58.212Z,4.88
2023-04-02T10:11:43.800Z,5.36
2023-04-02T10:14:23.854Z,5.73
2023-04-02T10:16:53.789Z,6.03
2023-04-02T10:19:23.304Z,6.25
2023-04-02T10:21:50.557Z,6.46
2023-04-02T10:24:17.977Z,6.50
2023-04-02T10:26:56.283Z,6.53
2023-04-02T10:29:31.897Z,6.62
2023-04-02T10:32:05.159Z,6.69
2023-04-02T10:34:43.103Z,6.80
2023-04-02T10:37:25.480Z,6.75
2023-04-02T10:40:11.441Z,6.97
2023-04-02T10:42:55.647Z,7.10
2023-04-02T10:45:40.680Z,7.26
2023-04-02T10:48:25.451Z,7.25
2023-04-02T10:51:06.759Z,7.34
2023-04-02T10:53:45.953Z,7.39
2023-04-02T10:56:14.006Z,7.47
2023-04-02T10:59:08.872Z,7.54
2023-04-02T11:01:36.997Z,7.65
2023-04-02T11:04:15.509Z,7.77
2023-04-02T11:06:46.924Z,7.78
2023-04-02T11:09:18.990Z,7.79
2023-04-02T11:11:49.031Z,7.94
2023-04-02T11:14:29.813Z,8.09
2023-04-02T11:16:59.096Z,8.23
2023-04-02T11:19:27.004Z,8.30
2023-04-02T11:22:11.970Z,8.24
2023-04-02T11:24:49.706Z,8.25
2023-04-02T11:27:24.497Z,8.45
2023-04-02T11:30:22.593Z,8.68
2023-04-02T11:32:50.261Z,8.52
2023-04-02T11:35:31.858Z,8.38
2023-04-02T11:38:06.349Z,8.42
2023-04-02T11:40:56.035Z,8.52
2023-04-02T11:43:35.279Z,8.51
2023-04-02T11:46:30.759Z,8.63
2023-04-02T11:49:33.021Z,8.74
2023-04-02T11:52:10.953Z,8.95
2023-04-02T11:54:38.916Z,9.08
2023-04-02T11:57:28.265Z,9.16
2023-04-02T12:00:18.197Z,9.22
2023-04-02T12:03:03.490Z,9.17
2023-04-02T12:05:43.146Z,9.31
2023-04-02T12:08:24.037Z,9.39
2023-04-02T12:10:54.252Z,9.32
2023-04-02T12:13:39.357Z,9.35
2023-04-02T12:16:10.994Z,9.44
2023-04-02T12:18:44.276Z,9.53
2023-04-02T12:21:19.243Z,9.59
2023-04-02T12:23:48.081Z,9.64
2023-04-02T12:26:42.857Z,9.65
2023-04-02T12:29:29.068Z,9.69
2023-04-02T12:31:57.566Z,9.81
2023-04-02T12:34:29.879Z,9.95
2023-04-02T12:37:02.815Z,10.02
2023-04-02T12:39:33.785Z,10.15
2023-04-02T12:42:00.451Z,10.04
2023-04-02T12:44:29.344Z,9.93
2023-04-02T12:46:57.193Z,9.79
2023-04-02T12:49:42.002Z,9.85
2023-04-02T12:52:17.867Z,9.94
2023-04-02T12:54:51.308Z,9.96
2023-04-02T12:57:30.225Z,10.08
2023-04-02T12:59:59.893Z,10.27
2023-04-02T13:02:29.339Z,10.25
2023-04-02T13:05:01.472Z,10.13
2023-04-02T13:07:33.464Z,10.03
2023-04-02T13:10:03.372Z,10.00
2023-04-02T13:12:34.171Z,10.19
2023-04-02T13:15:03.266Z,10.12
2023-04-02T13:17:42.578Z,10.07
2023-04-02T13:20:32.589Z,10.20
2023-04-02T13:23:00.776Z,10.14
2023-04-02T13:25:35.211Z,10.18
2023-04-02T13:28:02.646Z,10.12
2023-04-02T13:30:29.282Z,10.28
2023-04-02T13:32:56.432Z,10.40
2023-04-02T13:35:22.995Z,10.36
2023-04-02T13:37:49.626Z,10.28
2023-04-02T13:40:18.177Z,10.25
2023-04-02T13:42:45.706Z,10.24
2023-04-02T13:45:37.881Z,10.28
2023-04-02T13:48:05.827Z,10.31
2023-04-02T13:50:34.684Z,10.25
2023-04-02T13:53:09.036Z,10.37
2023-04-02T13:55:40.652Z,10.40
2023-04-02T13:58:07.569Z,10.46
2023-04-02T14:00:37.500Z,10.60
2023-04-02T14:03:10.017Z,10.62
2023-04-02T14:05:55.053Z,10.88
2023-04-02T14:08:59.109Z,11.06
2023-04-02T14:11:39.772Z,11.17
2023-04-02T14:14:12.089Z,11.35
2023-04-02T14:17:06.811Z,11.47
2023-04-02T14:19:58.009Z,11.56
2023-04-02T14:22:50.318Z,11.62
2023-04-02T14:25:31.134Z,11.80
2023-04-02T14:28:06.744Z,11.85
2023-04-02T14:30:56.552Z,11.97
2023-04-02T14:33:39.882Z,11.93
2023-04-02T14:36:37.070Z,12.07
2023-04-02T14:39:37.370Z,12.17
2023-04-02T14:42:13.769Z,12.18
2023-04-02T14:44:50.915Z,12.29
2023-04-02T14:47:29.499Z,12.53
2023-04-02T14:50:02.864Z,12.52
2023-04-02T14:52:33.347Z,12.57
2023-04-02T14:55:04.242Z,12.77
2023-04-02T14:57:36.110Z,13.03
2023-04-02T15:00:03.166Z,13.21
2023-04-02T15:02:51.591Z,13.20
2023-04-02T15:05:28.067Z,13.54
2023-04-02T15:08:03.477Z,13.95
2023-04-02T15:10:32.516Z,14.33
2023-04-02T15:13:04.255Z,14.54
2023-04-02T15:15:52.357Z,14.82
2023-04-02T15:18:18.883Z,14.84
2023-04-02T15:20:57.282Z,14.95
2023-04-02T15:23:36.846Z,14.89
2023-04-02T15:26:24.321Z,15.25
2023-04-02T15:29:28.397Z,15.32
2023-04-02T15:32:05.971Z,15.47
2023-04-02T15:34:44.841Z,15.68
2023-04-02T15:37:28.677Z,15.74
2023-04-02T15:40:19.406Z,15.98
2023-04-02T15:43:10.422Z,15.91
2023-04-02T15:45:45.379Z,15.98
2023-04-02T15:48:29.075Z,16.05
2023-04-02T15:51:21.180Z,16.33
2023-04-02T15:54:00.356Z,17.33
2023-04-02T15:56:48.527Z,17.14
2023-04-02T15:59:27.026Z,17.32
2023-04-02T16:02:16.728Z,17.66
2023-04-02T16:05:00.649Z,17.89
2023-04-02T16:07:48.624Z,18.28
2023-04-02T16:10:40.081Z,18.10
2023-04-02T16:13:17.904Z,19.05
2023-04-02T16:15:53.720Z,19.32
2023-04-02T16:18:47.836Z,19.43
2023-04-02T16:21:29.234Z,19.27
2023-04-02T16:23:55.910Z,19.24
2023-04-02T16:26:34.709Z,19.83
2023-04-02T16:29:07.147Z,20.24
2023-04-02T16:31:48.961Z,20.22
2023-04-02T16:34:42.196Z,20.03
2023-04-02T16:37:17.809Z,19.75
2023-04-02T16:39:59.591Z,20.02
2023-04-02T16:42:43.208Z,20.26
2023-04-02T16:45:17.987Z,19.99
2023-04-02T16:48:03.947Z,19.82
2023-04-02T16:50:45.871Z,20.73
2023-04-02T16:53:47.857Z,20.59
2023-04-02T16:56:45.991Z,21.26
2023-04-02T16:59:50.363Z,20.53
2023-04-02T17:02:51.602Z,20.32
2023-04-02T17:05:41.054Z,19.47
2023-04-02T17:08:16.408Z,18.39
2023-04-02T17:10:51.599Z,15.92
2023-04-02T17:13:24.947Z,14.76
2023-04-02T17:16:03.964Z,13.98
2023-04-02T17:18:32.892Z,13.66
2023-04-02T17:21:05.462Z,13.30
2023-04-02T17:23:55.198Z,13.58
2023-04-02T17:26:27.488Z,13.23
2023-04-02T17:28:57.333Z,13.19
2023-04-02T17:31:30.909Z,13.16
2023-04-02T17:33:57.506Z,12.84
2023-04-02T17:36:38.853Z,12.27
2023-04-02T17:39:08.417Z,11.53
2023-04-02T17:41:51.309Z,10.96
2023-04-02T17:44:57.664Z,10.55
2023-04-02T17:47:40.423Z,10.16
2023-04-02T17:50:31.449Z,9.96
2023-04-02T17:52:59.982Z,9.70
2023-04-02T17:55:40.447Z,9.44
2023-04-02T17:58:40.176Z,9.39
2023-04-02T18:01:13.280Z,9.19
2023-04-02T18:03:49.352Z,9.00
2023-04-02T18:06:38.096Z,8.82
2023-04-02T18:09:21.795Z,8.72
2023-04-02T18:12:03.994Z,8.58
2023-04-02T18:14:42.981Z,8.40
2023-04-02T18:17:40.659Z,8.29
2023-04-02T18:20:31.295Z,8.29
2023-04-02T18:23:16.510Z,8.22
2023-04-02T18:25:54.094Z,8.16
2023-04-02T18:28:39.324Z,8.07
2023-04-02T18:31:16.647Z,7.87
2023-04-02T18:34:09.739Z,7.75
2023-04-02T18:37:00.992Z,7.67
2023-04-02T18:39:40.002Z,7.64
2023-04-02T18:42:06.449Z,7.58
2023-04-02T18:44:58.427Z,7.53
2023-04-02T18:47:35.045Z,7.46
2023-04-02T18:50:24.609Z,7.43
2023-04-02T18:52:51.225Z,7.34
2023-04-02T18:55:21.692Z,7.31
2023-04-02T18:57:51.489Z,7.24
2023-04-02T19:00:36.631Z,7.21
2023-04-02T19:03:24.629Z,7.15
2023-04-02T19:06:00.914Z,7.03
2023-04-02T19:08:27.343Z,7.03
2023-04-02T19:11:16.540Z,6.91
2023-04-02T19:13:45.008Z,6.88
2023-04-02T19:16:48.512Z,6.84
2023-04-02T19:19:28.012Z,6.82
2023-04-02T19:22:45.116Z,6.76
2023-04-02T19:25:18.668Z,6.69
2023-04-02T19:28:01.962Z,6.67
2023-04-02T19:30:39.103Z,6.63
2023-04-02T19:33:33.240Z,6.59
2023-04-02T19:36:08.365Z,6.56
2023-04-02T19:38:50.307Z,6.50
2023-04-02T19:41:37.534Z,6.46
2023-04-02T19:44:09.468Z,6.43
2023-04-02T19:46:37.902Z,6.35
2023-04-02T19:49:28.368Z,6.29
2023-04-02T19:51:55.739Z,6.27
2023-04-02T19:54:22.830Z,6.28
2023-04-02T19:56:49.490Z,6.17
2023-04-02T19:59:18.546Z,6.13
2023-04-02T20:01:46.347Z,6.17
2023-04-02T20:04:13.244Z,6.14
2023-04-02T20:06:39.855Z,6.17
2023-04-02T20:09:08.077Z,6.19
2023-04-02T20:11:36.093Z,6.17
2023-04-02T20:14:03.241Z,6.14
2023-04-02T20:16:29.781Z,6.11
2023-04-02T20:18:56.601Z,6.07
2023-04-02T20:21:23.080Z,6.00
2023-04-02T20:23:53.463Z,5.93
2023-04-02T20:26:19.889Z,5.96
2023-04-02T20:28:46.560Z,5.88
2023-04-02T20:31:16.119Z,5.82
2023-04-02T20:33:44.213Z,5.80
2023-04-02T20:36:15.889Z,5.78
2023-04-02T20:38:43.373Z,5.80
2023-04-02T20:41:10.309Z,5.75
2023-04-02T20:43:37.571Z,5.69
2023-04-02T20:46:05.833Z,5.71
2023-04-02T20:48:34.290Z,5.64
2023-04-02T20:51:02.295Z,5.57
2023-04-02T20:53:29.997Z,5.58
2023-04-02T20:56:10.886Z,5.50
2023-04-02T20:58:38.579Z,5.44
2023-04-02T21:01:10.629Z,5.38
2023-04-02T21:03:37.324Z,5.29
2023-04-02T21:06:04.153Z,5.27
2023-04-02T21:08:30.775Z,5.23
2023-04-02T21:11:05.345Z,5.18
2023-04-02T21:13:33.266Z,5.14
2023-04-02T21:16:00.169Z,5.12
2023-04-02T21:18:26.766Z,5.10
2023-04-02T21:21:01.724Z,5.03
2023-04-02T21:23:28.827Z,4.97
2023-04-02T21:26:06.331Z,4.97
2023-04-02T21:28:34.310Z,4.94
2023-04-02T21:31:05.570Z,4.91
2023-04-02T21:33:35.669Z,4.85
2023-04-02T21:36:09.505Z,4.84
2023-04-02T21:38:36.593Z,4.81
2023-04-02T21:41:20.040Z,4.79
2023-04-02T21:43:48.305Z,4.71
2023-04-02T21:46:20.248Z,4.68
2023-04-02T21:48:48.287Z,4.64
2023-04-02T21:51:17.519Z,4.59
2023-04-02T21:53:45.489Z,4.52
2023-04-02T21:56:18.074Z,4.50
2023-04-02T21:58:46.052Z,4.50
2023-04-02T22:01:23.815Z,4.50
2023-04-02T22:03:53.762Z,4.45
2023-04-02T22:06:21.868Z,4.44
2023-04-02T22:08:54.442Z,4.36
2023-04-02T22:11:24.222Z,4.35
2023-04-02T22:13:51.859Z,4.33
2023-04-02T22:16:23.888Z,4.26
2023-04-02T22:18:52.655Z,4.19
2023-04-02T22:21:20.299Z,4.14
2023-04-02T22:23:47.855Z,4.09
2023-04-02T22:26:16.242Z,4.04
2023-04-02T22:28:43.473Z,4.04
2023-04-02T22:31:14.315Z,3.99
2023-04-02T22:33:41.456Z,3.93
2023-04-02T22:36:08.562Z,3.88
2023-04-02T22:38:36.272Z,3.87
2023-04-02T22:41:11.878Z,3.84
2023-04-02T22:43:39.541Z,3.80
2023-04-02T22:46:08.310Z,3.71
2023-04-02T22:48:35.587Z,3.68
2023-04-02T22:51:02.352Z,3.65
2023-04-02T22:53:29.225Z,3.64
2023-04-02T22:55:55.784Z,3.63
2023-04-02T22:58:22.645Z,3.60
2023-04-02T23:00:49.124Z,3.56
2023-04-02T23:03:15.606Z,3.48
2023-04-02T23:05:42.588Z,3.47
2023-04-02T23:08:09.423Z,3.43
2023-04-02T23:10:36.582Z,3.40
2023-04-02T23:13:03.709Z,3.32
2023-04-02T23:15:30.496Z,3.28
2023-04-02T23:17:57.046Z,3.28
2023-04-02T23:20:23.553Z,3.23
2023-04-02T23:22:50.074Z,3.16
2023-04-02T23:25:16.674Z,3.15
2023-04-02T23:27:43.153Z,3.07
2023-04-02T23:30:09.854Z,3.07
2023-04-02T23:32:36.368Z,3.05
2023-04-02T23:35:02.941Z,3.06
2023-04-02T23:37:29.435Z,3.09
2023-04-02T23:39:55.865Z,3.12
2023-04-02T23:42:22.405Z,3.07
2023-04-02T23:44:48.890Z,3.09
2023-04-02T23:47:15.481Z,3.04
2023-04-02T23:49:47.504Z,3.03
2023-04-02T23:52:15.402Z,3.03
2023-04-02T23:54:41.889Z,3.03
2023-04-02T23:57:08.488Z,3.01
2023-04-02T23:59:35.578Z,3.01
